Dades meteomassalio
Diari Summary for Febrer 14, 2017 Units:  Metric    English   Both
« Previous Day
Next Day »
Diari Semanal Mensual Anual Personalitzat
  Maxima: Minima: Mijana:
Temperatura: -17.8 °C -15.8 °C -12.6 °C
Rosada: -17.8 °C -16.3 °C -14.4 °C
Humitat: Humidity % 57 % 81 %
Velocitat del vent: 0 km/h 0 km/h 3.5 km/h
Racha vent: 0 km/h - -
Vent:- - East
Pressio: 0 hPa 34405.1 hPa -
Pluja: 12.7 mm    
Historical Graphs
 
 
Tabular Data for Febrer 14, 2017
Time Temperature Dew Point Pressure Wind Wind Speed Wind Gust Humidity Rainfall Rate (Hourly) solar Conditions
-17.8 °C -17.8 °C 0 hPa Calm     Humidity % 0 mm SolarRadiationWatts/m^2 W/m2 Conditions
00:04 -12.7 °C -13.2 °C 34405.1 hPa West 9 km/h 9 km/h 94 % 0 mm 0.0 W/m2 RA
00:09 -12.6 °C -13.2 °C 34418.7 hPa WSW 12.9 km/h 12.9 km/h 93 % 0 mm 0.0 W/m2 CLR
00:14 -12.6 °C -13.2 °C 34418.7 hPa WSW 9 km/h 9 km/h 93 % 0 mm 0.0 W/m2 CLR
00:19 -12.6 °C -13.2 °C 34418.7 hPa SW 11.9 km/h 11.9 km/h 92 % 0 mm 0.0 W/m2 CLR
00:24 -12.6 °C -13.3 °C 34418.7 hPa Calm     92 % 0 mm 0.0 W/m2 CLR
00:29 -12.7 °C -13.5 °C 34418.7 hPa Calm     91 % 0 mm 0.0 W/m2 CLR
00:34 -12.9 °C -13.7 °C 34418.7 hPa Calm     91 % 0 mm 0.0 W/m2 CLR
00:39 -12.9 °C -13.7 °C 34418.7 hPa Calm     91 % 0 mm 0.0 W/m2 CLR
00:44 -13 °C -13.7 °C 34428.8 hPa Calm     92 % 0 mm 0.0 W/m2 CLR
00:49 -13.1 °C -13.7 °C 34428.8 hPa Calm     92 % 0 mm 0.0 W/m2 CLR
00:54 -13.1 °C -13.8 °C 34428.8 hPa Calm     92 % 0 mm 0.0 W/m2 CLR
00:59 -13.1 °C -13.8 °C 34428.8 hPa Calm     92 % 0 mm 0.0 W/m2 CLR
01:04 -13.1 °C -13.8 °C 34428.8 hPa Calm     92 % 0 mm 0.0 W/m2 CLR
01:09 -13.2 °C -13.9 °C 34428.8 hPa Calm     91 % 0 mm 0.0 W/m2 CLR
01:14 -13.3 °C -14 °C 34428.8 hPa Calm     92 % 0 mm 0.0 W/m2 CLR
01:19 -13.3 °C -14 °C 34442.4 hPa Calm     92 % 0 mm 0.0 W/m2 CLR
01:24 -13.3 °C -13.9 °C 34442.4 hPa Calm     92 % 0 mm 0.0 W/m2 CLR
01:29 -13.3 °C -14.1 °C 34442.4 hPa Calm     91 % 0 mm 0.0 W/m2 CLR
01:34 -13.4 °C -14.2 °C 34442.4 hPa Calm     91 % 0 mm 0.0 W/m2 CLR
01:39 -13.6 °C -14.3 °C 34442.4 hPa Calm     91 % 0 mm 0.0 W/m2 CLR
01:44 -13.7 °C -14.3 °C 34442.4 hPa SW 11.9 km/h 11.9 km/h 92 % 0 mm 0.0 W/m2 CLR
01:49 -13.7 °C -14.4 °C 34442.4 hPa Calm   3.4 km/h 92 % 0 mm 0.0 W/m2 CLR
01:54 -13.7 °C -14.4 °C 34442.4 hPa SW 11.9 km/h 11.9 km/h 92 % 0 mm 0.0 W/m2 CLR
01:59 -13.7 °C -14.4 °C 34442.4 hPa Calm     92 % 0 mm 0.0 W/m2 CLR
02:04 -13.7 °C -14.3 °C 34452.6 hPa Calm     92 % 0 mm 0.0 W/m2 CLR
02:09 -13.7 °C -14.4 °C 34452.6 hPa Calm     91 % 0 mm 0.0 W/m2 CLR
02:14 -13.7 °C -14.4 °C 34452.6 hPa Calm     91 % 0 mm 0.0 W/m2 CLR
02:19 -13.7 °C -14.4 °C 34462.7 hPa Calm     91 % 0 mm 0.0 W/m2 CLR
02:24 -13.7 °C -14.5 °C 34462.7 hPa Calm     91 % 0 mm 0.0 W/m2 CLR
02:29 -13.7 °C -14.5 °C 34462.7 hPa Calm     91 % 0 mm 0.0 W/m2 CLR
02:34 -13.8 °C -14.6 °C 34462.7 hPa Calm     91 % 0 mm 0.0 W/m2 CLR
02:39 -13.8 °C -14.6 °C 34462.7 hPa Calm     91 % 0 mm 0.0 W/m2 CLR
02:44 -13.9 °C -14.7 °C 34462.7 hPa Calm     91 % 0 mm 0.0 W/m2 CLR
02:49 -13.9 °C -14.7 °C 34462.7 hPa Calm     91 % 0 mm 0.0 W/m2 CLR
02:54 -14 °C -14.8 °C 34476.3 hPa Calm     91 % 0 mm 0.0 W/m2 CLR
02:59 -14.1 °C -14.8 °C 34476.3 hPa Calm     91 % 0 mm 0.0 W/m2 CLR
03:04 -14.1 °C -14.7 °C 34476.3 hPa Calm     92 % 0 mm 0.0 W/m2 CLR
03:09 -14.1 °C -14.8 °C 34476.3 hPa Calm     91 % 0 mm 0.0 W/m2 CLR
03:14 -14.2 °C -14.9 °C 34476.3 hPa Calm     91 % 0 mm 0.0 W/m2 CLR
03:15 -14.2 °C -14.9 °C 34476.3 hPa Calm     91 % 0 mm 0.0 W/m2 CLR
03:20 -14.2 °C -14.9 °C 34486.4 hPa Calm     92 % 0 mm 0.0 W/m2 CLR
03:25 -14.3 °C -14.9 °C 34486.4 hPa Calm     92 % 0 mm 0.0 W/m2 CLR
03:30 -14.2 °C -14.9 °C 34486.4 hPa Calm     92 % 0 mm 0.0 W/m2 CLR
03:35 -14.2 °C -14.9 °C 34486.4 hPa Calm     92 % 0 mm 0.0 W/m2 CLR
03:40 -14.3 °C -14.9 °C 34486.4 hPa Calm     92 % 0 mm 0.0 W/m2 CLR
03:45 -14.4 °C -15.1 °C 34486.4 hPa Calm     92 % 0 mm 0.0 W/m2 CLR
03:50 -14.4 °C -15.1 °C 34486.4 hPa Calm     92 % 0 mm 0.0 W/m2 CLR
03:55 -14.4 °C -15.1 °C 34486.4 hPa Calm     92 % 0 mm 0.0 W/m2 CLR
04:00 -14.5 °C -15.2 °C 34496.6 hPa Calm     92 % 0 mm 0.0 W/m2 CLR
04:05 -14.6 °C -15.2 °C 34496.6 hPa Calm     92 % 0 mm 0.0 W/m2 CLR
04:10 -14.6 °C -15.3 °C 34496.6 hPa Calm     92 % 0 mm 0.0 W/m2 CLR
04:15 -14.6 °C -15.3 °C 34496.6 hPa Calm     92 % 0 mm 0.0 W/m2 CLR
04:20 -14.7 °C -15.3 °C 34496.6 hPa Calm     92 % 0 mm 0.0 W/m2 CLR
04:25 -14.7 °C -15.4 °C 34510.1 hPa Calm     92 % 0 mm 0.0 W/m2 CLR
04:30 -14.8 °C -15.3 °C 34510.1 hPa Calm     93 % 0 mm 0.0 W/m2 CLR
04:35 -14.8 °C -15.3 °C 34510.1 hPa Calm     93 % 0 mm 0.0 W/m2 CLR
04:40 -14.8 °C -15.4 °C 34510.1 hPa Calm     93 % 0 mm 0.0 W/m2 CLR
04:45 -14.8 °C -15.5 °C 34510.1 hPa Calm     92 % 0 mm 0.0 W/m2 CLR
04:50 -14.9 °C -15.5 °C 34520.3 hPa Calm     93 % 12.7 mm 0.0 W/m2 RA
04:55 -14.9 °C -15.5 °C 34520.3 hPa Calm     93 % 12.7 mm 0.0 W/m2 CLR
05:00 -15 °C -15.6 °C 34520.3 hPa WSW 6 km/h 6 km/h 93 % 12.7 mm 0.0 W/m2 CLR
05:05 -14.8 °C -15.4 °C 34520.3 hPa WSW 11.9 km/h 11.9 km/h 93 % 12.7 mm 0.0 W/m2 CLR
05:10 -14.6 °C -15.1 °C 34533.8 hPa Calm     94 % 12.7 mm 0.0 W/m2 CLR
05:15 -14.6 °C -15.2 °C 34533.8 hPa Calm     93 % 12.7 mm 0.0 W/m2 CLR
05:20 -14.8 °C -15.4 °C 34533.8 hPa Calm     92 % 12.7 mm 0.0 W/m2 CLR
05:25 -14.9 °C -15.6 °C 34544 hPa Calm     92 % 12.7 mm 0.0 W/m2 CLR
05:30 -15.1 °C -15.7 °C 34544 hPa Calm     92 % 12.7 mm 0.0 W/m2 CLR
05:35 -15.1 °C -15.8 °C 34544 hPa Calm     92 % 12.7 mm 0.0 W/m2 CLR
05:40 -15.2 °C -15.7 °C 34554.1 hPa Calm     93 % 12.7 mm 0.0 W/m2 CLR
05:45 -15.2 °C -15.9 °C 34554.1 hPa Calm     92 % 12.7 mm 0.0 W/m2 CLR
05:50 -15.2 °C -15.8 °C 34554.1 hPa Calm     93 % 0 mm 0.0 W/m2 CLR
05:55 -15.3 °C -15.9 °C 34554.1 hPa Calm     93 % 0 mm 0.0 W/m2 CLR
06:00 -15.3 °C -15.9 °C 34554.1 hPa Calm     93 % 0 mm 0.0 W/m2 CLR
06:05 -15.3 °C -15.9 °C 34567.7 hPa Calm     93 % 0 mm 0.0 W/m2 CLR
06:10 -15.3 °C -15.9 °C 34567.7 hPa Calm     93 % 0 mm 0.0 W/m2 CLR
06:15 -15.4 °C -16.1 °C 34567.7 hPa Calm     92 % 0 mm 0.0 W/m2 CLR
06:20 -15.5 °C -16.1 °C 34567.7 hPa Calm     93 % 0 mm 0.0 W/m2 CLR
06:25 -15.4 °C -16.1 °C 34577.8 hPa Calm     93 % 0 mm 0.0 W/m2 CLR
06:30 -15.4 °C -16.1 °C 34577.8 hPa Calm     93 % 0 mm 0.0 W/m2 CLR
06:35 -15.4 °C -16 °C 34577.8 hPa Calm     93 % 0 mm 0.0 W/m2 CLR
06:40 -15.4 °C -15.9 °C 34577.8 hPa Calm     93 % 0 mm 0.0 W/m2 CLR
06:45 -15.4 °C -16 °C 34577.8 hPa Calm     93 % 0 mm 0.0 W/m2 CLR
06:50 -15.6 °C -16.2 °C 34591.4 hPa Calm     93 % 0 mm 0.0 W/m2 CLR
06:55 -15.7 °C -16.2 °C 34591.4 hPa Calm     93 % 0 mm 0.0 W/m2 CLR
07:00 -15.6 °C -16.2 °C 34591.4 hPa Calm     93 % 0 mm 0.0 W/m2 CLR
07:05 -15.5 °C -16.1 °C 34591.4 hPa Calm     93 % 0 mm 0.0 W/m2 CLR
07:10 -15.5 °C -16.1 °C 34591.4 hPa Calm     93 % 0 mm 0.0 W/m2 CLR
07:15 -15.6 °C -16.2 °C 34601.5 hPa Calm     93 % 0 mm 0.0 W/m2 CLR
07:20 -15.6 °C -16.2 °C 34601.5 hPa Calm     93 % 0 mm 0.0 W/m2 CLR
07:25 -15.6 °C -16.2 °C 34601.5 hPa Calm     93 % 0 mm 0.0 W/m2 CLR
07:30 -15.5 °C -16.1 °C 34601.5 hPa Calm     93 % 0 mm 0.0 W/m2 CLR
07:35 -15.5 °C -16.1 °C 34611.7 hPa Calm     93 % 0 mm 0.0 W/m2 CLR
07:40 -15.6 °C -16.2 °C 34611.7 hPa Calm     93 % 0 mm 0.0 W/m2 CLR
07:45 -15.7 °C -16.2 °C 34611.7 hPa Calm     93 % 0 mm 0.0 W/m2 OVC
07:50 -15.7 °C -16.3 °C 34611.7 hPa Calm     93 % 0 mm 0.0 W/m2 OVC
07:55 -15.7 °C -16.3 °C 34625.2 hPa Calm     93 % 0 mm 0.0 W/m2 OVC
08:00 -15.8 °C -16.3 °C 34625.2 hPa Calm     93 % 0 mm 7.0 W/m2 BKN
08:05 -15.8 °C -16.3 °C 34625.2 hPa Calm     93 % 0 mm 9.0 W/m2 BKN
08:10 -15.8 °C -16.3 °C 34625.2 hPa Calm     93 % 0 mm 11.0 W/m2 BKN
08:15 -15.7 °C -16.3 °C 34635.4 hPa Calm     93 % 0 mm 12.0 W/m2 BKN
08:20 -15.6 °C -16.2 °C 34635.4 hPa Calm     93 % 0 mm 19.0 W/m2 BKN
08:25 -15.4 °C -15.9 °C 34635.4 hPa Calm     94 % 0 mm 26.0 W/m2 BKN
08:30 -15.6 °C -16.2 °C 34635.4 hPa Calm     93 % 0 mm 37.0 W/m2 BKN
08:35 -15.6 °C -16.2 °C 34645.6 hPa Calm     93 % 0 mm 42.0 W/m2 BKN
08:40 -15.4 °C -16.1 °C 34645.6 hPa Calm     93 % 0 mm 62.0 W/m2 SCT
08:45 -15.3 °C -15.8 °C 34645.6 hPa Calm     94 % 0 mm 74.0 W/m2 FEW
08:50 -15.2 °C -15.7 °C 34645.6 hPa Calm     94 % 0 mm 84.0 W/m2 FEW
08:55 -15.1 °C -15.5 °C 34659.1 hPa Calm     94 % 0 mm 100.0 W/m2 CLR
09:00 -14.9 °C -15.5 °C 34659.1 hPa Calm     93 % 0 mm 116.0 W/m2 CLR
09:05 -14.9 °C -15.5 °C 34659.1 hPa Calm     93 % 0 mm 134.0 W/m2 CLR
09:10 -14.8 °C -15.4 °C 34659.1 hPa Calm     93 % 0 mm 148.0 W/m2 CLR
09:15 -14.6 °C -15.1 °C 34659.1 hPa Calm     94 % 0 mm 128.0 W/m2 CLR
09:20 -14.5 °C -15.1 °C 34659.1 hPa Calm     93 % 0 mm 116.0 W/m2 CLR
09:25 -14.3 °C -14.8 °C 34659.1 hPa Calm     93 % 0 mm 171.0 W/m2 CLR
09:30 -14.1 °C -14.7 °C 34659.1 hPa Calm     93 % 0 mm 190.0 W/m2 CLR
09:35 -13.9 °C -14.5 °C 34659.1 hPa Calm     93 % 0 mm 227.0 W/m2 CLR
09:40 -13.8 °C -14.5 °C 34659.1 hPa Calm     92 % 0 mm 241.0 W/m2 CLR
09:45 -13.7 °C -14.4 °C 34659.1 hPa Calm     92 % 0 mm 255.0 W/m2 CLR
09:51 -13.4 °C -14.1 °C 34659.1 hPa Calm     92 % 0 mm 271.0 W/m2 CLR
09:56 -13.1 °C -13.8 °C 34659.1 hPa Calm     92 % 0 mm 283.0 W/m2 CLR
10:01 -12.9 °C -13.7 °C 34659.1 hPa Calm     91 % 0 mm 297.0 W/m2 CLR
10:06 -12.7 °C -13.5 °C 34659.1 hPa Calm     90 % 0 mm 308.0 W/m2 CLR
10:11 -12.5 °C -13.4 °C 34659.1 hPa Calm     89 % 0 mm 322.0 W/m2 CLR
10:16 -12.4 °C -13.6 °C 34659.1 hPa Calm     87 % 0 mm 332.0 W/m2 CLR
10:21 -12.3 °C -13.5 °C 34669.3 hPa Calm     87 % 0 mm 345.0 W/m2 CLR
10:26 -12.2 °C -13.4 °C 34659.1 hPa Calm     86 % 0 mm 357.0 W/m2 CLR
10:31 -12.1 °C -13.4 °C 34669.3 hPa Calm     85 % 0 mm 369.0 W/m2 CLR
10:36 -11.9 °C -13.4 °C 34659.1 hPa Calm     84 % 0 mm 383.0 W/m2 CLR
10:41 -11.8 °C -13.2 °C 34669.3 hPa Calm     84 % 0 mm 399.0 W/m2 CLR
10:46 -11.7 °C -13.3 °C 34669.3 hPa Calm     82 % 0 mm 413.0 W/m2 CLR
10:51 -11.6 °C -13.2 °C 34669.3 hPa Calm     82 % 0 mm 424.0 W/m2 CLR
10:56 -11.3 °C -13.1 °C 34669.3 hPa ESE 9 km/h 9 km/h 81 % 0 mm 434.0 W/m2 CLR
11:01 -11.2 °C -13.2 °C 34669.3 hPa East 6 km/h 6 km/h 79 % 0 mm 445.0 W/m2 CLR
11:06 -11.2 °C -13.2 °C 34669.3 hPa Calm     78 % 0 mm 454.0 W/m2 CLR
11:11 -11 °C -13.2 °C 34669.3 hPa Calm     77 % 0 mm 464.0 W/m2 CLR
11:16 -10.8 °C -13.1 °C 34682.8 hPa Calm     76 % 0 mm 473.0 W/m2 CLR
11:21 -10.7 °C -13.2 °C 34682.8 hPa Calm     74 % 0 mm 483.0 W/m2 CLR
11:26 -10.5 °C -13.4 °C 34682.8 hPa Calm     70 % 0 mm 492.0 W/m2 CLR
11:31 -10.4 °C -13.4 °C 34682.8 hPa Calm     69 % 0 mm 499.0 W/m2 CLR
11:36 -10.2 °C -12.9 °C 34682.8 hPa Calm     72 % 0 mm 510.0 W/m2 CLR
11:41 -10.1 °C -13.8 °C 34682.8 hPa Calm     64 % 0 mm 519.0 W/m2 CLR
11:46 -10.1 °C -14.1 °C 34682.8 hPa Calm     62 % 0 mm 526.0 W/m2 CLR
11:51 -10.1 °C -14.1 °C 34682.8 hPa NNE 9 km/h 9 km/h 62 % 0 mm 531.0 W/m2 CLR
11:56 -10.1 °C -13.8 °C 34682.8 hPa North 20.9 km/h 20.9 km/h 64 % 0 mm 536.0 W/m2 CLR
12:01 -10.1 °C -14.3 °C 34682.8 hPa North 9 km/h 9 km/h 60 % 0 mm 545.0 W/m2 CLR
12:06 -10.1 °C -14.1 °C 34682.8 hPa NNE 9 km/h 9 km/h 62 % 0 mm 538.0 W/m2 CLR
12:11 -10.1 °C -14.2 °C 34682.8 hPa North 9 km/h 9 km/h 61 % 0 mm 555.0 W/m2 CLR
12:16 -10.1 °C -14.3 °C 34682.8 hPa Calm     60 % 0 mm 561.0 W/m2 CLR
12:21 -9.9 °C -13.8 °C 34682.8 hPa NNE 12.9 km/h 12.9 km/h 63 % 0 mm 564.0 W/m2 CLR
12:26 -9.9 °C -14.3 °C 34682.8 hPa North 9 km/h 9 km/h 59 % 0 mm 570.0 W/m2 CLR
12:31 -9.9 °C -14.1 °C 34682.8 hPa North 9 km/h 9 km/h 61 % 0 mm 573.0 W/m2 CLR
12:36 -9.9 °C -14.1 °C 34682.8 hPa Calm     61 % 0 mm 577.0 W/m2 CLR
12:41 -9.8 °C -13.4 °C 34682.8 hPa ENE 9 km/h 9 km/h 65 % 0 mm 580.0 W/m2 CLR
12:46 -9.8 °C -13.6 °C 34682.8 hPa NE 9 km/h 9 km/h 63 % 0 mm 582.0 W/m2 CLR
12:51 -9.8 °C -13.8 °C 34693 hPa NE 9 km/h 9 km/h 62 % 0 mm 584.0 W/m2 CLR
12:56 -9.8 °C -13.9 °C 34693 hPa ENE 11.9 km/h 11.9 km/h 61 % 0 mm 585.0 W/m2 CLR
13:01 -9.9 °C -13.7 °C 34682.8 hPa East 11.9 km/h 11.9 km/h 63 % 0 mm 591.0 W/m2 CLR
13:06 -9.8 °C -13.8 °C 34682.8 hPa ENE 12.9 km/h 12.9 km/h 62 % 0 mm 589.0 W/m2 CLR
13:11 -9.8 °C -13.6 °C 34682.8 hPa ENE 18.2 km/h 18.2 km/h 63 % 0 mm 591.0 W/m2 CLR
13:16 -9.7 °C -13.8 °C 34682.8 hPa East 6 km/h 6 km/h 61 % 0 mm 591.0 W/m2 CLR
13:21 -9.6 °C -13.5 °C 34682.8 hPa East 11.9 km/h 11.9 km/h 63 % 0 mm 591.0 W/m2 CLR
13:26 -9.7 °C -13.7 °C 34682.8 hPa Calm     62 % 0 mm 591.0 W/m2 CLR
13:31 -9.7 °C -13.9 °C 34682.8 hPa East 17.9 km/h 17.9 km/h 60 % 0 mm 589.0 W/m2 CLR
13:36 -9.7 °C -13.7 °C 34682.8 hPa NE 20.9 km/h 20.9 km/h 62 % 0 mm 589.0 W/m2 CLR
13:41 -9.7 °C -13.5 °C 34682.8 hPa ENE 12.9 km/h 12.9 km/h 63 % 0 mm 587.0 W/m2 CLR
13:46 -9.6 °C -13.6 °C 34682.8 hPa ENE 15 km/h 15 km/h 62 % 0 mm 585.0 W/m2 CLR
13:51 -9.6 °C -14 °C 34682.8 hPa ENE 20.9 km/h 20.9 km/h 59 % 0 mm 584.0 W/m2 CLR
13:56 -9.6 °C -14 °C 34682.8 hPa ENE 20.9 km/h 20.9 km/h 59 % 0 mm 582.0 W/m2 CLR
14:01 -9.6 °C -13.7 °C 34682.8 hPa ENE 12.9 km/h 12.9 km/h 61 % 0 mm 578.0 W/m2 CLR
14:06 -9.5 °C -13.8 °C 34682.8 hPa ENE 12.9 km/h 12.9 km/h 60 % 0 mm 578.0 W/m2 CLR
14:11 -9.5 °C -14.2 °C 34682.8 hPa East 11.9 km/h 11.9 km/h 57 % 0 mm 577.0 W/m2 CLR
14:16 -9.5 °C -14.1 °C 34682.8 hPa NE 15.6 km/h 15.6 km/h 58 % 0 mm 571.0 W/m2 CLR
14:21 -9.5 °C -13.9 °C 34682.8 hPa ENE 15 km/h 15 km/h 59 % 0 mm 545.0 W/m2 CLR
14:26 -9.4 °C -13.7 °C 34682.8 hPa East 15 km/h 15 km/h 60 % 0 mm 552.0 W/m2 CLR
14:31 -9.4 °C -13.8 °C 34682.8 hPa NE 17.9 km/h 17.9 km/h 59 % 0 mm 497.0 W/m2 CLR
14:36 -9.4 °C -13.8 °C 34682.8 hPa NE 15 km/h 15 km/h 59 % 0 mm 536.0 W/m2 CLR
14:41 -9.4 °C -13.7 °C 34682.8 hPa NNE 11.9 km/h 11.9 km/h 60 % 0 mm 540.0 W/m2 CLR
14:46 -9.4 °C -13.4 °C 34682.8 hPa NE 15 km/h 15 km/h 62 % 0 mm 443.0 W/m2 CLR
14:51 -9.4 °C -13.7 °C 34682.8 hPa ENE 9 km/h 9 km/h 60 % 0 mm 446.0 W/m2 CLR
14:56 -9.3 °C -13.7 °C 34682.8 hPa ENE 15 km/h 15 km/h 60 % 0 mm 485.0 W/m2 CLR
15:01 -9.3 °C -13.6 °C 34682.8 hPa NNE 9 km/h 9 km/h 60 % 0 mm 533.0 W/m2 CLR
15:06 -9.3 °C -13.6 °C 34682.8 hPa NNE 17.9 km/h 17.9 km/h 60 % 0 mm 515.0 W/m2 CLR
15:11 -9.3 °C -13.6 °C 34682.8 hPa NE 11.9 km/h 11.9 km/h 60 % 0 mm 497.0 W/m2 CLR
15:16 -9.3 °C -13.6 °C 34682.8 hPa NE 17.9 km/h 17.9 km/h 60 % 0 mm 485.0 W/m2 CLR
15:21 -9.3 °C -13.4 °C 34682.8 hPa NNE 15 km/h 15 km/h 61 % 0 mm 462.0 W/m2 CLR
15:26 -9.3 °C -13.7 °C 34682.8 hPa NE 15 km/h 15 km/h 59 % 0 mm 461.0 W/m2 CLR
15:31 -9.3 °C -13.7 °C 34682.8 hPa NE 11.9 km/h 11.9 km/h 59 % 0 mm 450.0 W/m2 CLR
15:36 -9.2 °C -13.7 °C 34682.8 hPa NE 11.9 km/h 11.9 km/h 59 % 0 mm 438.0 W/m2 CLR
15:41 -9.2 °C -13.7 °C 34682.8 hPa NE 15 km/h 15 km/h 59 % 0 mm 429.0 W/m2 CLR
15:46 -9.2 °C -13.7 °C 34682.8 hPa NE 5.1 km/h 5.1 km/h 58 % 0 mm 413.0 W/m2 CLR
15:51 -9.1 °C -13.7 °C 34682.8 hPa ESE 9 km/h 9 km/h 58 % 0 mm 403.0 W/m2 CLR
15:56 -9.1 °C -13.8 °C 34693 hPa ENE 23.8 km/h 23.8 km/h 57 % 0 mm 392.0 W/m2 CLR
16:01 -9.2 °C -13.7 °C 34693 hPa ENE 23.8 km/h 23.8 km/h 58 % 0 mm 381.0 W/m2 CLR
16:06 -9.2 °C -13.5 °C 34693 hPa NNE 15 km/h 15 km/h 60 % 0 mm 367.0 W/m2 CLR
16:11 -9.3 °C -13.6 °C 34693 hPa ENE 18.2 km/h 18.2 km/h 60 % 0 mm 343.0 W/m2 CLR
16:16 -9.2 °C -13.7 °C 34693 hPa NE 12.9 km/h 12.9 km/h 59 % 0 mm 334.0 W/m2 CLR
16:21 -9.2 °C -13.6 °C 34693 hPa Calm     59 % 0 mm 334.0 W/m2 CLR
16:26 -9.1 °C -13.8 °C 34693 hPa ENE 17.9 km/h 17.9 km/h 57 % 0 mm 323.0 W/m2 CLR
16:31 -9.1 °C -13.5 °C 34693 hPa East 6 km/h 6 km/h 59 % 0 mm 311.0 W/m2 CLR
16:36 -9.1 °C -13.5 °C 34693 hPa ENE 20.9 km/h 20.9 km/h 59 % 0 mm 269.0 W/m2 CLR
16:41 -9.1 °C -13.6 °C 34693 hPa NE 11.9 km/h 11.9 km/h 59 % 0 mm 77.0 W/m2 CLR
16:46 -9.3 °C -13.7 °C 34693 hPa ENE 15 km/h 15 km/h 59 % 0 mm 120.0 W/m2 CLR
16:51 -9.4 °C -13.7 °C 34703.1 hPa East 11.9 km/h 11.9 km/h 60 % 0 mm 111.0 W/m2 CLR
16:56 -9.4 °C -13.7 °C 34703.1 hPa East 11.9 km/h 11.9 km/h 60 % 0 mm 178.0 W/m2 CLR
17:01 -9.4 °C -13.6 °C 34703.1 hPa NE 9 km/h 9 km/h 61 % 0 mm 171.0 W/m2 CLR
17:06 -9.4 °C -13.5 °C 34703.1 hPa ENE 11.9 km/h 11.9 km/h 61 % 0 mm 204.0 W/m2 CLR
17:11 -9.3 °C -13.5 °C 34703.1 hPa Calm     61 % 0 mm 162.0 W/m2 CLR
17:16 -9.3 °C -13.6 °C 34703.1 hPa ENE 9 km/h 9 km/h 60 % 0 mm 139.0 W/m2 CLR
17:21 -9.3 °C -13.6 °C 34716.7 hPa East 9 km/h 9 km/h 60 % 0 mm 104.0 W/m2 CLR
17:26 -9.4 °C -13.7 °C 34703.1 hPa ENE 17.9 km/h 17.9 km/h 60 % 0 mm 81.0 W/m2 CLR
17:31 -9.4 °C -13.6 °C 34716.7 hPa East 9 km/h 9 km/h 61 % 0 mm 60.0 W/m2 FEW
17:36 -9.4 °C -13.4 °C 34716.7 hPa ESE 15 km/h 15 km/h 62 % 0 mm 53.0 W/m2 SCT
17:41 -9.5 °C -13.4 °C 34716.7 hPa East 17.9 km/h 17.9 km/h 63 % 0 mm 46.0 W/m2 SCT
17:46 -9.6 °C -13.4 °C 34716.7 hPa ENE 11.9 km/h 11.9 km/h 63 % 0 mm 39.0 W/m2 BKN
17:51 -9.6 °C -13.3 °C 34716.7 hPa East 9 km/h 9 km/h 64 % 0 mm 35.0 W/m2 BKN
17:56 -9.7 °C -13.3 °C 34716.7 hPa Calm   1.3 km/h 65 % 0 mm 28.0 W/m2 BKN
18:01 -9.8 °C -13.4 °C 34726.8 hPa Calm     65 % 0 mm 25.0 W/m2 BKN
18:06 -9.8 °C -13.3 °C 34726.8 hPa Calm     66 % 0 mm 21.0 W/m2 BKN
18:11 -9.9 °C -13.4 °C 34726.8 hPa Calm     66 % 0 mm 18.0 W/m2 BKN
18:16 -9.9 °C -13.3 °C 34740.4 hPa East 9 km/h 9 km/h 67 % 0 mm 12.0 W/m2 BKN
18:21 -10.1 °C -13.4 °C 34740.4 hPa Calm     67 % 0 mm 11.0 W/m2 BKN
18:26 -10.1 °C -13.3 °C 34740.4 hPa Calm     68 % 0 mm 7.0 W/m2 BKN
18:31 -10.1 °C -13.2 °C 34740.4 hPa Calm     69 % 0 mm 0.0 W/m2 OVC
18:36 -10.2 °C -13.3 °C 34750.5 hPa Calm     69 % 0 mm 0.0 W/m2 OVC
18:41 -10.2 °C -13.2 °C 34750.5 hPa Calm     70 % 0 mm 0.0 W/m2 OVC
18:46 -10.3 °C -13.2 °C 34750.5 hPa Calm     71 % 0 mm 0.0 W/m2 CLR
18:51 -10.4 °C -13.2 °C 34750.5 hPa Calm     72 % 0 mm 0.0 W/m2 CLR
18:56 -10.4 °C -13.2 °C 34750.5 hPa Calm     72 % 0 mm 0.0 W/m2 CLR
19:02 -10.5 °C -13.2 °C 34760.7 hPa Calm     73 % 0 mm 0.0 W/m2 CLR
19:07 -10.6 °C -13.2 °C 34760.7 hPa Calm     73 % 0 mm 0.0 W/m2 CLR
19:11 -10.6 °C -13.1 °C 34760.7 hPa Calm     74 % 0 mm 0.0 W/m2 CLR
19:17 -10.7 °C -13.2 °C 34760.7 hPa Calm     75 % 0 mm 0.0 W/m2 CLR
19:22 -10.9 °C -13.2 °C 34774.2 hPa Calm     76 % 0 mm 0.0 W/m2 CLR
19:27 -10.9 °C -13.2 °C 34774.2 hPa Calm     76 % 0 mm 0.0 W/m2 CLR
19:32 -11.1 °C -13.2 °C 34774.2 hPa Calm     77 % 0 mm 0.0 W/m2 CLR
19:37 -11.2 °C -13.2 °C 34774.2 hPa Calm     78 % 0 mm 0.0 W/m2 CLR
19:42 -11.3 °C -13.2 °C 34774.2 hPa Calm     79 % 0 mm 0.0 W/m2 CLR
19:47 -11.4 °C -13.3 °C 34774.2 hPa Calm     80 % 0 mm 0.0 W/m2 CLR
19:52 -11.6 °C -13.4 °C 34774.2 hPa Calm     80 % 0 mm 0.0 W/m2 CLR
19:57 -11.7 °C -13.4 °C 34784.4 hPa Calm     81 % 0 mm 0.0 W/m2 CLR
20:02 -11.8 °C -13.4 °C 34784.4 hPa Calm     82 % 0 mm 0.0 W/m2 CLR
20:07 -12 °C -13.5 °C 34784.4 hPa Calm     83 % 0 mm 0.0 W/m2 CLR
20:12 -12.2 °C -13.6 °C 34784.4 hPa Calm     84 % 0 mm 0.0 W/m2 CLR
20:17 -12.3 °C -13.7 °C 34797.9 hPa Calm     85 % 0 mm 0.0 W/m2 CLR
20:22 -12.4 °C -13.8 °C 34797.9 hPa Calm     85 % 0 mm 0.0 W/m2 CLR
20:27 -12.6 °C -13.8 °C 34797.9 hPa Calm     86 % 0 mm 0.0 W/m2 CLR
20:32 -12.7 °C -13.9 °C 34797.9 hPa Calm     86 % 0 mm 0.0 W/m2 CLR
20:37 -12.7 °C -13.9 °C 34797.9 hPa Calm     86 % 0 mm 0.0 W/m2 CLR
20:42 -12.8 °C -13.9 °C 34797.9 hPa Calm     87 % 0 mm 0.0 W/m2 CLR
20:47 -12.8 °C -14 °C 34797.9 hPa Calm     87 % 0 mm 0.0 W/m2 CLR
20:52 -12.9 °C -14.1 °C 34808.1 hPa Calm     87 % 0 mm 0.0 W/m2 CLR
20:57 -13 °C -14.2 °C 34808.1 hPa Calm     87 % 0 mm 0.0 W/m2 CLR
21:02 -13.2 °C -14.2 °C 34808.1 hPa Calm     88 % 0 mm 0.0 W/m2 CLR
21:07 -13.3 °C -14.3 °C 34808.1 hPa Calm     88 % 0 mm 0.0 W/m2 CLR
21:12 -13.3 °C -14.3 °C 34818.2 hPa Calm     89 % 0 mm 0.0 W/m2 CLR
21:17 -13.3 °C -14.1 °C 34818.2 hPa Calm     90 % 0 mm 0.0 W/m2 CLR
21:22 -13.4 °C -14.3 °C 34818.2 hPa Calm     89 % 0 mm 0.0 W/m2 CLR
21:27 -13.5 °C -14.4 °C 34818.2 hPa Calm     89 % 0 mm 0.0 W/m2 CLR
21:32 -13.6 °C -14.6 °C 34818.2 hPa Calm     89 % 0 mm 0.0 W/m2 CLR
21:37 -13.7 °C -14.7 °C 34831.8 hPa Calm     89 % 0 mm 0.0 W/m2 CLR
21:42 -13.8 °C -14.7 °C 34831.8 hPa Calm     89 % 0 mm 0.0 W/m2 CLR
21:47 -13.8 °C -14.7 °C 34831.8 hPa Calm     90 % 0 mm 0.0 W/m2 CLR
21:52 -13.9 °C -14.8 °C 34831.8 hPa Calm     90 % 0 mm 0.0 W/m2 CLR
21:57 -14 °C -14.8 °C 34831.8 hPa Calm     90 % 0 mm 0.0 W/m2 CLR
22:02 -14.1 °C -14.9 °C 34831.8 hPa Calm     90 % 0 mm 0.0 W/m2 CLR
22:07 -14.1 °C -14.9 °C 34841.9 hPa Calm     90 % 0 mm 0.0 W/m2 CLR
22:12 -14.2 °C -15 °C 34831.8 hPa Calm     91 % 0 mm 0.0 W/m2 CLR
22:17 -14.2 °C -15 °C 34841.9 hPa Calm     91 % 0 mm 0.0 W/m2 CLR
22:22 -14.3 °C -15.1 °C 34841.9 hPa Calm     91 % 0 mm 0.0 W/m2 CLR
22:27 -14.3 °C -15.1 °C 34841.9 hPa Calm     91 % 0 mm 0.0 W/m2 CLR
22:32 -14.3 °C -15 °C 34841.9 hPa Calm     92 % 0 mm 0.0 W/m2 CLR
22:37 -14.4 °C -15.1 °C 34841.9 hPa Calm     91 % 0 mm 0.0 W/m2 CLR
22:42 -14.4 °C -15.2 °C 34841.9 hPa Calm     91 % 0 mm 0.0 W/m2 CLR
22:47 -14.6 °C -15.3 °C 34852.1 hPa Calm     91 % 0 mm 0.0 W/m2 CLR
22:52 -14.6 °C -15.3 °C 34852.1 hPa Calm     91 % 0 mm 0.0 W/m2 CLR
22:57 -14.6 °C -15.3 °C 34852.1 hPa Calm     91 % 0 mm 0.0 W/m2 CLR
23:02 -14.7 °C -15.3 °C 34852.1 hPa Calm     92 % 0 mm 0.0 W/m2 CLR
23:07 -14.7 °C -15.4 °C 34852.1 hPa Calm     92 % 0 mm 0.0 W/m2 CLR
23:12 -14.7 °C -15.4 °C 34852.1 hPa Calm     92 % 0 mm 0.0 W/m2 CLR
23:17 -14.8 °C -15.5 °C 34852.1 hPa Calm     91 % 0 mm 0.0 W/m2 CLR
23:22 -14.8 °C -15.5 °C 34852.1 hPa Calm     92 % 0 mm 0.0 W/m2 CLR
23:27 -14.8 °C -15.5 °C 34852.1 hPa Calm     92 % 0 mm 0.0 W/m2 CLR
23:32 -14.8 °C -15.5 °C 34852.1 hPa Calm     92 % 0 mm 0.0 W/m2 CLR
23:37 -14.9 °C -15.6 °C 34852.1 hPa Calm     92 % 0 mm 0.0 W/m2 CLR
23:42 -14.9 °C -15.6 °C 34865.6 hPa Calm     92 % 0 mm 0.0 W/m2 CLR
23:47 -15.1 °C -15.7 °C 34865.6 hPa Calm     92 % 0 mm 0.0 W/m2 CLR
23:52 -15.1 °C -15.8 °C 34865.6 hPa Calm     92 % 0 mm 0.0 W/m2 CLR
23:57 -15.2 °C -15.8 °C 34865.6 hPa Calm     92 % 0 mm 0.0 W/m2 CLR
Lo Temps de Massalio
Compliments of Weather Underground - 1.25 mb